KLM104 FACT-EHAM
Flight info
| Callsign | KLM104 |
|---|---|
| Flight time | N/A |
| Altitude | 31000 |
| Route | N0497F310 DCT CTV DCT KODES UN186 ATUPI/N0503F320 UM436 ANVAG UN187 VNA UR526 LIKAD UY339 MESIN UG861 RASOP/N0501F340 UG861 DLA UR854 KOKAM UA604 AS UR978 BERTI/N0489F360 UR978 BOD UM998 KAMER DCT NAFOQ DCT SURJU DCT PADKO DCT MRM DCT MTL DCT ETREK DCT MADOT DCT MOPEM DCT CACHI DCT AVLON DCT OKRIX DCT BRY DCT CLM DCT NURMO DCT SULEX DCT VEKIN DCT ADUTO/N0482F370 DCT FERDI/N0452F240 Y18 DENUT DENUT3A |
| Aircraft | B77W/H-SDE1E2E3FGHIJ2J3J4J5M1RWXY/LB1D1 |
Departure
| Time | 2026-05-08 06:00 |
|---|---|
| Airport | Cape Town International Airport (FACT) |
Arrival
| Time | N/A |
|---|---|
| Airport | Amsterdam Airport Schiphol (EHAM) |
| Time | Latitude | Longitude | Altitude | Speed | Heading |
|---|---|---|---|---|---|
| 2026-05-08 05:14 | -33.96834 | 18.59783 | 159 ft | 0 kts | 255° |
| 2026-05-08 05:49 | -33.96832 | 18.59794 | 159 ft | 4 kts | 255° |
| 2026-05-08 05:49 | -33.96825 | 18.59825 | 159 ft | 3 kts | 255° |
| 2026-05-08 05:49 | -33.96818 | 18.59850 | 159 ft | 4 kts | 230° |
| 2026-05-08 05:49 | -33.96798 | 18.59864 | 159 ft | 4 kts | 178° |
| 2026-05-08 05:50 | -33.96774 | 18.59859 | 159 ft | 4 kts | 165° |
| 2026-05-08 05:50 | -33.96751 | 18.59852 | 159 ft | 1 kts | 165° |
| 2026-05-08 05:53 | -33.96752 | 18.59852 | 159 ft | 2 kts | 165° |
| 2026-05-08 05:53 | -33.96805 | 18.59870 | 159 ft | 15 kts | 163° |
| 2026-05-08 05:53 | -33.96907 | 18.59905 | 159 ft | 15 kts | 165° |
| 2026-05-08 05:53 | -33.97009 | 18.59936 | 159 ft | 15 kts | 166° |
| 2026-05-08 05:54 | -33.97114 | 18.59962 | 159 ft | 15 kts | 171° |
| 2026-05-08 05:54 | -33.97218 | 18.59992 | 159 ft | 15 kts | 166° |
| 2026-05-08 05:54 | -33.97321 | 18.60023 | 159 ft | 15 kts | 165° |
| 2026-05-08 05:54 | -33.97422 | 18.60057 | 159 ft | 15 kts | 164° |
| 2026-05-08 05:55 | -33.97522 | 18.60098 | 159 ft | 15 kts | 155° |
| 2026-05-08 05:55 | -33.97620 | 18.60149 | 159 ft | 15 kts | 161° |
| 2026-05-08 05:55 | -33.97720 | 18.60193 | 159 ft | 15 kts | 160° |
| 2026-05-08 05:55 | -33.97821 | 18.60236 | 159 ft | 15 kts | 160° |
| 2026-05-08 05:56 | -33.97921 | 18.60279 | 159 ft | 15 kts | 160° |
| 2026-05-08 05:56 | -33.98020 | 18.60320 | 159 ft | 15 kts | 160° |
| 2026-05-08 05:56 | -33.98120 | 18.60364 | 159 ft | 15 kts | 160° |
| 2026-05-08 05:56 | -33.98220 | 18.60407 | 159 ft | 15 kts | 160° |
| 2026-05-08 05:57 | -33.98321 | 18.60451 | 159 ft | 15 kts | 160° |
| 2026-05-08 05:57 | -33.98421 | 18.60493 | 159 ft | 15 kts | 161° |
| 2026-05-08 05:57 | -33.98521 | 18.60535 | 159 ft | 15 kts | 158° |
| 2026-05-08 05:57 | -33.98620 | 18.60579 | 159 ft | 15 kts | 162° |
| 2026-05-08 05:58 | -33.98721 | 18.60622 | 159 ft | 15 kts | 159° |
| 2026-05-08 05:58 | -33.98788 | 18.60662 | 159 ft | 9 kts | 141° |
| 2026-05-08 05:58 | -33.98799 | 18.60730 | 159 ft | 9 kts | 75° |
| 2026-05-08 05:58 | -33.98781 | 18.60803 | 159 ft | 9 kts | 73° |
| 2026-05-08 05:59 | -33.98752 | 18.60869 | 160 ft | 9 kts | 31° |
| 2026-05-08 05:59 | -33.98693 | 18.60862 | 159 ft | 0 kts | 346° |
| 2026-05-08 05:59 | -33.98679 | 18.60858 | 159 ft | 19 kts | 346° |
| 2026-05-08 05:59 | -33.98259 | 18.60726 | 158 ft | 103 kts | 345° |
| 2026-05-08 06:00 | -33.97314 | 18.60423 | 157 ft | 176 kts | 345° |
| 2026-05-08 06:00 | -33.95955 | 18.59992 | 271 ft | 217 kts | 345° |
| 2026-05-08 06:00 | -33.94485 | 18.59533 | 985 ft | 223 kts | 345° |
| 2026-05-08 06:00 | -33.92962 | 18.59046 | 1764 ft | 226 kts | 343° |
| 2026-05-08 06:01 | -33.91409 | 18.58361 | 1995 ft | 249 kts | 327° |
| 2026-05-08 06:01 | -33.90233 | 18.56804 | 2320 ft | 259 kts | 299° |
| 2026-05-08 06:01 | -33.89245 | 18.54950 | 2791 ft | 266 kts | 311° |
| 2026-05-08 06:01 | -33.87780 | 18.53626 | 3310 ft | 269 kts | 331° |
| 2026-05-08 06:02 | -33.86155 | 18.52465 | 3965 ft | 273 kts | 327° |
| 2026-05-08 06:02 | -33.84513 | 18.51328 | 4658 ft | 272 kts | 341° |
| 2026-05-08 06:02 | -33.82629 | 18.51019 | 5259 ft | 277 kts | 5° |
| 2026-05-08 06:02 | -33.80724 | 18.51405 | 5975 ft | 278 kts | 16° |
| 2026-05-08 06:03 | -33.78982 | 18.52325 | 6637 ft | 278 kts | 33° |
| 2026-05-08 06:03 | -33.77343 | 18.53604 | 7251 ft | 281 kts | 34° |
| 2026-05-08 06:03 | -33.75697 | 18.54899 | 7919 ft | 283 kts | 33° |
| 2026-05-08 06:03 | -33.74051 | 18.56202 | 8625 ft | 284 kts | 33° |
| 2026-05-08 06:04 | -33.72398 | 18.57515 | 9319 ft | 285 kts | 33° |
| 2026-05-08 06:04 | -33.70732 | 18.58838 | 9976 ft | 289 kts | 33° |
| 2026-05-08 06:04 | -33.69039 | 18.60181 | 10490 ft | 295 kts | 33° |
| 2026-05-08 06:04 | -33.67284 | 18.61570 | 10645 ft | 316 kts | 33° |
| 2026-05-08 06:05 | -33.65386 | 18.63072 | 10819 ft | 336 kts | 33° |
| 2026-05-08 06:05 | -33.63366 | 18.64669 | 10984 ft | 357 kts | 33° |
| 2026-05-08 06:05 | -33.61240 | 18.66349 | 11354 ft | 371 kts | 33° |
| 2026-05-08 06:05 | -33.59084 | 18.68050 | 11894 ft | 379 kts | 33° |
| 2026-05-08 06:06 | -33.56844 | 18.69759 | 12474 ft | 381 kts | 27° |
| 2026-05-08 06:06 | -33.54321 | 18.70756 | 12970 ft | 385 kts | 5° |
| 2026-05-08 06:06 | -33.51641 | 18.70972 | 13507 ft | 389 kts | 3° |
| 2026-05-08 06:06 | -33.48915 | 18.71251 | 14142 ft | 395 kts | 5° |
| 2026-05-08 06:07 | -33.46175 | 18.71586 | 14824 ft | 397 kts | 5° |
| 2026-05-08 06:07 | -33.44351 | 18.71819 | 15274 ft | 398 kts | 5° |
| 2026-05-08 06:07 | -33.41578 | 18.72176 | 15934 ft | 402 kts | 5° |
| 2026-05-08 06:07 | -33.37860 | 18.72651 | 16752 ft | 408 kts | 5° |
| 2026-05-08 06:08 | -33.35945 | 18.72894 | 17166 ft | 410 kts | 5° |
| 2026-05-08 06:08 | -33.33125 | 18.73250 | 17772 ft | 414 kts | 5° |
| 2026-05-08 06:08 | -33.30241 | 18.73613 | 18399 ft | 418 kts | 5° |
| 2026-05-08 06:08 | -33.27327 | 18.73979 | 18952 ft | 422 kts | 5° |
| 2026-05-08 06:09 | -33.24397 | 18.74347 | 19518 ft | 425 kts | 5° |
| 2026-05-08 06:09 | -33.21444 | 18.74717 | 20063 ft | 428 kts | 5° |
| 2026-05-08 06:09 | -33.18470 | 18.75090 | 20590 ft | 431 kts | 5° |
| 2026-05-08 06:09 | -33.15473 | 18.75463 | 21114 ft | 435 kts | 4° |
| 2026-05-08 06:10 | -33.12445 | 18.75528 | 21558 ft | 435 kts | 353° |
| 2026-05-08 06:10 | -33.09434 | 18.75016 | 22017 ft | 438 kts | 348° |
| 2026-05-08 06:10 | -33.06418 | 18.74376 | 22531 ft | 442 kts | 348° |
| 2026-05-08 06:10 | -33.03420 | 18.73725 | 23040 ft | 444 kts | 348° |
| 2026-05-08 06:11 | -33.00360 | 18.73079 | 23568 ft | 447 kts | 348° |
| 2026-05-08 06:11 | -32.97278 | 18.72454 | 24014 ft | 450 kts | 348° |
| 2026-05-08 06:11 | -32.94167 | 18.71848 | 24408 ft | 454 kts | 349° |
| 2026-05-08 06:11 | -32.91033 | 18.71254 | 24795 ft | 457 kts | 349° |
| 2026-05-08 06:12 | -32.87880 | 18.70666 | 25189 ft | 460 kts | 349° |
| 2026-05-08 06:12 | -32.84709 | 18.70080 | 25585 ft | 463 kts | 349° |
| 2026-05-08 06:12 | -32.81558 | 18.69500 | 25950 ft | 466 kts | 349° |
| 2026-05-08 06:12 | -32.78343 | 18.68909 | 26312 ft | 469 kts | 349° |
| 2026-05-08 06:13 | -32.75107 | 18.68314 | 26740 ft | 470 kts | 349° |
| 2026-05-08 06:13 | -32.71864 | 18.67717 | 27118 ft | 473 kts | 348° |
| 2026-05-08 06:13 | -32.68602 | 18.67115 | 27464 ft | 476 kts | 348° |
| 2026-05-08 06:13 | -32.65306 | 18.66508 | 27770 ft | 479 kts | 348° |
| 2026-05-08 06:14 | -32.61992 | 18.65897 | 28103 ft | 482 kts | 348° |
| 2026-05-08 06:14 | -32.58708 | 18.65293 | 28416 ft | 484 kts | 348° |
| 2026-05-08 06:14 | -32.55363 | 18.64678 | 28736 ft | 487 kts | 348° |
| 2026-05-08 06:14 | -32.52007 | 18.64062 | 29028 ft | 489 kts | 348° |
| 2026-05-08 06:15 | -32.48633 | 18.63442 | 29325 ft | 492 kts | 348° |
| 2026-05-08 06:15 | -32.45232 | 18.62819 | 29577 ft | 494 kts | 348° |
| 2026-05-08 06:15 | -32.41825 | 18.62194 | 29861 ft | 496 kts | 348° |
| 2026-05-08 06:15 | -32.38409 | 18.61569 | 30216 ft | 496 kts | 348° |
| 2026-05-08 06:16 | -32.35004 | 18.60947 | 30533 ft | 495 kts | 348° |
| 2026-05-08 06:16 | -32.31644 | 18.60332 | 30830 ft | 495 kts | 348° |
| 2026-05-08 06:16 | -32.28235 | 18.59710 | 31063 ft | 495 kts | 348° |
| 2026-05-08 06:16 | -32.24825 | 18.59088 | 31316 ft | 496 kts | 348° |
| 2026-05-08 06:17 | -32.18003 | 18.57844 | 31832 ft | 496 kts | 347° |
| 2026-05-08 06:17 | -32.14577 | 18.57220 | 32056 ft | 497 kts | 347° |
| 2026-05-08 06:17 | -32.11148 | 18.56594 | 32105 ft | 501 kts | 347° |
| 2026-05-08 06:18 | -32.04255 | 18.55341 | 32158 ft | 499 kts | 347° |
| 2026-05-08 06:18 | -31.97463 | 18.54112 | 32162 ft | 494 kts | 347° |
| 2026-05-08 06:19 | -31.90664 | 18.52879 | 32171 ft | 494 kts | 347° |
| 2026-05-08 06:19 | -31.83862 | 18.51645 | 32162 ft | 494 kts | 347° |
| 2026-05-08 06:20 | -31.77091 | 18.50421 | 32148 ft | 495 kts | 346° |
| 2026-05-08 06:20 | -31.70274 | 18.49191 | 32161 ft | 495 kts | 346° |
| 2026-05-08 06:21 | -31.63452 | 18.47962 | 32174 ft | 496 kts | 346° |
| 2026-05-08 06:21 | -31.56654 | 18.46739 | 32169 ft | 496 kts | 346° |
| 2026-05-08 06:22 | -31.49802 | 18.45508 | 32160 ft | 497 kts | 346° |
| 2026-05-08 06:22 | -31.42990 | 18.44286 | 32167 ft | 497 kts | 346° |
| 2026-05-08 06:23 | -31.36153 | 18.43061 | 32160 ft | 497 kts | 346° |
| 2026-05-08 06:23 | -31.29304 | 18.41836 | 32154 ft | 498 kts | 346° |
| 2026-05-08 06:24 | -31.22485 | 18.40617 | 32167 ft | 499 kts | 345° |
| 2026-05-08 06:24 | -31.15599 | 18.39389 | 32177 ft | 501 kts | 346° |
| 2026-05-08 06:25 | -31.08687 | 18.38156 | 32161 ft | 502 kts | 346° |
| 2026-05-08 06:25 | -31.01764 | 18.36928 | 32173 ft | 503 kts | 346° |
| 2026-05-08 06:26 | -30.94887 | 18.35709 | 32159 ft | 502 kts | 345° |
| 2026-05-08 06:26 | -30.87965 | 18.34481 | 32164 ft | 502 kts | 345° |
| 2026-05-08 06:27 | -30.81047 | 18.33255 | 32173 ft | 502 kts | 345° |
| 2026-05-08 06:27 | -30.74172 | 18.32040 | 32135 ft | 502 kts | 345° |
| 2026-05-08 06:28 | -30.67266 | 18.30821 | 32165 ft | 501 kts | 345° |
| 2026-05-08 06:28 | -30.60356 | 18.29604 | 32181 ft | 501 kts | 345° |
| 2026-05-08 06:29 | -30.53491 | 18.28392 | 32182 ft | 501 kts | 345° |
| 2026-05-08 06:29 | -30.46584 | 18.27177 | 32145 ft | 501 kts | 344° |
| 2026-05-08 06:30 | -30.39716 | 18.25970 | 32180 ft | 500 kts | 344° |
| 2026-05-08 06:30 | -30.32823 | 18.24763 | 32191 ft | 500 kts | 344° |
| 2026-05-08 06:31 | -30.25925 | 18.23550 | 32197 ft | 500 kts | 344° |
| 2026-05-08 06:31 | -30.19071 | 18.22347 | 32176 ft | 500 kts | 344° |
| 2026-05-08 06:32 | -30.12176 | 18.21142 | 32194 ft | 500 kts | 344° |
| 2026-05-08 06:32 | -30.05275 | 18.19927 | 32204 ft | 501 kts | 343° |
| 2026-05-08 06:33 | -29.98397 | 18.18712 | 32203 ft | 502 kts | 344° |
| 2026-05-08 06:33 | -29.91469 | 18.17511 | 32208 ft | 503 kts | 344° |
| 2026-05-08 06:34 | -29.84571 | 18.16316 | 32191 ft | 503 kts | 344° |
| 2026-05-08 06:34 | -29.77628 | 18.15112 | 32200 ft | 503 kts | 344° |
| 2026-05-08 06:35 | -29.70697 | 18.13909 | 32184 ft | 503 kts | 344° |
| 2026-05-08 06:35 | -29.63812 | 18.12718 | 32181 ft | 502 kts | 343° |
| 2026-05-08 06:36 | -29.56897 | 18.11522 | 32182 ft | 501 kts | 343° |
| 2026-05-08 06:36 | -29.50043 | 18.10339 | 32175 ft | 500 kts | 343° |
| 2026-05-08 06:37 | -29.43151 | 18.09149 | 32187 ft | 500 kts | 343° |
| 2026-05-08 06:37 | -29.36268 | 18.07964 | 32171 ft | 499 kts | 343° |
| 2026-05-08 06:38 | -29.29436 | 18.06789 | 32176 ft | 499 kts | 343° |
| 2026-05-08 06:38 | -29.22541 | 18.05604 | 32163 ft | 499 kts | 343° |
| 2026-05-08 06:39 | -29.15705 | 18.04432 | 32175 ft | 499 kts | 343° |
| 2026-05-08 06:39 | -29.08824 | 18.03254 | 32165 ft | 498 kts | 343° |
| 2026-05-08 06:40 | -29.02000 | 18.02086 | 32170 ft | 498 kts | 343° |
| 2026-05-08 06:40 | -28.95131 | 18.00914 | 32157 ft | 499 kts | 343° |
| 2026-05-08 06:41 | -28.88293 | 17.99748 | 32171 ft | 499 kts | 343° |
| 2026-05-08 06:41 | -28.81422 | 17.98575 | 32136 ft | 498 kts | 343° |
| 2026-05-08 06:42 | -28.74570 | 17.97412 | 32150 ft | 496 kts | 343° |
| 2026-05-08 06:42 | -28.67786 | 17.96260 | 32148 ft | 496 kts | 343° |
| 2026-05-08 06:43 | -28.60952 | 17.95101 | 32141 ft | 496 kts | 343° |
| 2026-05-08 06:43 | -28.54138 | 17.93949 | 32134 ft | 495 kts | 343° |
| 2026-05-08 06:44 | -28.47312 | 17.92793 | 32139 ft | 494 kts | 343° |
| 2026-05-08 06:44 | -28.40541 | 17.91642 | 32142 ft | 494 kts | 343° |
| 2026-05-08 06:45 | -28.33712 | 17.90486 | 32140 ft | 494 kts | 343° |
| 2026-05-08 06:45 | -28.26929 | 17.89341 | 32136 ft | 493 kts | 343° |
| 2026-05-08 06:46 | -28.20048 | 17.88508 | 32140 ft | 499 kts | 348° |
| 2026-05-08 06:46 | -28.13151 | 17.88026 | 32134 ft | 499 kts | 348° |
| 2026-05-08 06:47 | -28.06195 | 17.87515 | 32131 ft | 499 kts | 347° |
| 2026-05-08 06:47 | -27.99292 | 17.86988 | 32131 ft | 498 kts | 347° |
| 2026-05-08 06:48 | -27.92353 | 17.86450 | 32137 ft | 498 kts | 347° |
| 2026-05-08 06:48 | -27.85475 | 17.85915 | 32129 ft | 497 kts | 347° |
| 2026-05-08 06:49 | -27.78562 | 17.85382 | 32145 ft | 497 kts | 347° |
| 2026-05-08 06:49 | -27.71657 | 17.84854 | 32148 ft | 496 kts | 347° |
| 2026-05-08 06:50 | -27.64804 | 17.84329 | 32147 ft | 496 kts | 347° |
| 2026-05-08 06:50 | -27.57913 | 17.83802 | 32148 ft | 495 kts | 347° |
| 2026-05-08 06:51 | -27.51043 | 17.83259 | 32153 ft | 493 kts | 345° |
| 2026-05-08 06:51 | -27.44343 | 17.82200 | 32154 ft | 486 kts | 342° |
| 2026-05-08 06:52 | -27.37649 | 17.81036 | 32161 ft | 486 kts | 342° |
| 2026-05-08 06:52 | -27.30952 | 17.79895 | 32167 ft | 487 kts | 342° |
| 2026-05-08 06:53 | -27.24236 | 17.78774 | 32170 ft | 487 kts | 342° |
| 2026-05-08 06:53 | -27.17560 | 17.77667 | 32160 ft | 487 kts | 342° |
| 2026-05-08 06:54 | -27.10864 | 17.76558 | 32169 ft | 487 kts | 342° |
| 2026-05-08 06:54 | -27.04138 | 17.75444 | 32163 ft | 488 kts | 342° |
| 2026-05-08 06:55 | -26.97399 | 17.74329 | 32164 ft | 488 kts | 342° |
| 2026-05-08 06:55 | -26.90711 | 17.73224 | 32164 ft | 488 kts | 342° |
| 2026-05-08 06:56 | -26.85112 | 17.72300 | 32176 ft | 488 kts | 342° |
| 2026-05-08 06:56 | -26.77292 | 17.71010 | 32174 ft | 488 kts | 342° |
| 2026-05-08 06:57 | -26.71643 | 17.70079 | 32169 ft | 489 kts | 342° |
| 2026-05-08 06:57 | -26.64942 | 17.68978 | 32170 ft | 489 kts | 342° |
| 2026-05-08 06:58 | -26.58217 | 17.67876 | 32172 ft | 488 kts | 342° |
| 2026-05-08 06:58 | -26.51532 | 17.66776 | 32171 ft | 488 kts | 342° |
| 2026-05-08 06:59 | -26.44784 | 17.65673 | 32163 ft | 488 kts | 342° |
| 2026-05-08 06:59 | -26.38092 | 17.64579 | 32170 ft | 488 kts | 342° |
| 2026-05-08 07:00 | -26.31366 | 17.63474 | 32178 ft | 486 kts | 341° |
| 2026-05-08 07:00 | -26.24702 | 17.62379 | 32173 ft | 486 kts | 341° |
| 2026-05-08 07:01 | -26.18009 | 17.61281 | 32175 ft | 486 kts | 341° |
| 2026-05-08 07:01 | -26.11310 | 17.60187 | 32164 ft | 485 kts | 341° |
| 2026-05-08 07:02 | -26.04651 | 17.59102 | 32150 ft | 485 kts | 341° |
| 2026-05-08 07:02 | -25.97973 | 17.58014 | 32162 ft | 484 kts | 341° |
| 2026-05-08 07:03 | -25.91332 | 17.56932 | 32170 ft | 484 kts | 341° |
| 2026-05-08 07:03 | -25.84656 | 17.55846 | 32172 ft | 485 kts | 341° |
| 2026-05-08 07:04 | -25.77981 | 17.54762 | 32133 ft | 485 kts | 341° |
| 2026-05-08 07:04 | -25.71345 | 17.53687 | 32166 ft | 484 kts | 341° |
| 2026-05-08 07:05 | -25.64664 | 17.52604 | 32178 ft | 484 kts | 341° |
| 2026-05-08 07:05 | -25.58025 | 17.51528 | 32171 ft | 485 kts | 341° |
| 2026-05-08 07:06 | -25.51336 | 17.50448 | 32175 ft | 485 kts | 341° |
| 2026-05-08 07:06 | -25.44653 | 17.49370 | 32168 ft | 484 kts | 341° |
| 2026-05-08 07:07 | -25.38023 | 17.48300 | 32169 ft | 484 kts | 341° |
| 2026-05-08 07:07 | -25.31344 | 17.47225 | 32175 ft | 484 kts | 341° |
| 2026-05-08 07:08 | -25.24709 | 17.46157 | 32162 ft | 484 kts | 341° |
| 2026-05-08 07:08 | -25.18025 | 17.45084 | 32137 ft | 483 kts | 342° |
| 2026-05-08 07:09 | -25.11365 | 17.44016 | 32156 ft | 483 kts | 342° |
| 2026-05-08 07:09 | -25.04745 | 17.42956 | 32162 ft | 484 kts | 342° |
| 2026-05-08 07:10 | -24.98077 | 17.41888 | 32167 ft | 483 kts | 342° |
| 2026-05-08 07:10 | -24.91407 | 17.40826 | 32164 ft | 483 kts | 342° |
| 2026-05-08 07:11 | -24.84786 | 17.39775 | 32156 ft | 483 kts | 342° |
| 2026-05-08 07:11 | -24.78126 | 17.38719 | 32162 ft | 483 kts | 342° |
| 2026-05-08 07:12 | -24.71450 | 17.37663 | 32165 ft | 484 kts | 342° |
| 2026-05-08 07:12 | -24.64773 | 17.36607 | 32168 ft | 485 kts | 342° |
| 2026-05-08 07:13 | -24.58126 | 17.35558 | 32155 ft | 484 kts | 342° |
| 2026-05-08 07:13 | -24.51434 | 17.34505 | 32158 ft | 485 kts | 342° |
| 2026-05-08 07:14 | -24.44758 | 17.33452 | 32154 ft | 485 kts | 342° |
| 2026-05-08 07:14 | -24.38101 | 17.32399 | 32167 ft | 485 kts | 342° |
| 2026-05-08 07:15 | -24.31400 | 17.31342 | 32166 ft | 485 kts | 342° |
| 2026-05-08 07:15 | -24.24743 | 17.30296 | 32166 ft | 485 kts | 342° |
| 2026-05-08 07:16 | -24.18046 | 17.29245 | 32168 ft | 485 kts | 342° |
| 2026-05-08 07:16 | -24.11390 | 17.28202 | 32166 ft | 485 kts | 342° |
| 2026-05-08 07:17 | -24.04706 | 17.27156 | 32168 ft | 484 kts | 342° |
| 2026-05-08 07:17 | -23.98017 | 17.26109 | 32164 ft | 484 kts | 343° |
| 2026-05-08 07:18 | -23.91345 | 17.25067 | 32159 ft | 484 kts | 343° |
| 2026-05-08 07:18 | -23.84710 | 17.24032 | 32170 ft | 484 kts | 343° |
| 2026-05-08 07:19 | -23.78009 | 17.22987 | 32161 ft | 485 kts | 343° |
| 2026-05-08 07:19 | -23.71359 | 17.21954 | 32133 ft | 485 kts | 343° |
| 2026-05-08 07:20 | -23.64672 | 17.20913 | 32158 ft | 485 kts | 343° |
| 2026-05-08 07:20 | -23.57991 | 17.19839 | 32160 ft | 485 kts | 342° |
| 2026-05-08 07:21 | -23.51339 | 17.18761 | 32159 ft | 485 kts | 343° |
| 2026-05-08 07:21 | -23.44639 | 17.17684 | 32158 ft | 485 kts | 343° |
| 2026-05-08 07:22 | -23.37944 | 17.16603 | 32145 ft | 485 kts | 343° |
| 2026-05-08 07:22 | -23.31297 | 17.15518 | 32148 ft | 485 kts | 343° |
| 2026-05-08 07:23 | -23.24648 | 17.14437 | 32150 ft | 485 kts | 343° |
| 2026-05-08 07:23 | -23.17938 | 17.13347 | 32142 ft | 485 kts | 342° |
| 2026-05-08 07:24 | -23.11352 | 17.11918 | 32106 ft | 480 kts | 339° |
| 2026-05-08 07:24 | -23.04852 | 17.10343 | 32118 ft | 480 kts | 339° |
| 2026-05-08 07:25 | -22.98342 | 17.08782 | 32119 ft | 481 kts | 339° |
| 2026-05-08 07:26 | -22.88487 | 17.06458 | 32164 ft | 482 kts | 339° |
| 2026-05-08 07:26 | -22.81952 | 17.04921 | 32200 ft | 483 kts | 339° |
| 2026-05-08 07:27 | -22.75383 | 17.03377 | 32256 ft | 482 kts | 340° |
| 2026-05-08 07:27 | -22.68804 | 17.01832 | 32292 ft | 484 kts | 339° |
| 2026-05-08 07:28 | -22.62242 | 17.00296 | 32307 ft | 484 kts | 339° |
| 2026-05-08 07:28 | -22.55633 | 16.98746 | 32299 ft | 485 kts | 339° |
| 2026-05-08 07:29 | -22.49062 | 16.97216 | 32100 ft | 485 kts | 340° |
| 2026-05-08 07:29 | -22.42445 | 16.95680 | 32116 ft | 485 kts | 340° |
| 2026-05-08 07:30 | -22.35874 | 16.94134 | 32107 ft | 484 kts | 339° |
| 2026-05-08 07:30 | -22.29296 | 16.92547 | 32127 ft | 483 kts | 339° |
| 2026-05-08 07:31 | -22.22698 | 16.90975 | 32135 ft | 486 kts | 340° |
| 2026-05-08 07:31 | -22.16093 | 16.89508 | 32115 ft | 487 kts | 340° |
| 2026-05-08 07:32 | -22.09439 | 16.88013 | 32123 ft | 488 kts | 340° |
| 2026-05-08 07:32 | -22.02795 | 16.86476 | 32128 ft | 488 kts | 340° |
| 2026-05-08 07:33 | -21.96185 | 16.84938 | 32130 ft | 487 kts | 340° |
| 2026-05-08 07:33 | -21.89549 | 16.83403 | 32104 ft | 487 kts | 340° |
| 2026-05-08 07:34 | -21.82969 | 16.81885 | 32125 ft | 486 kts | 340° |
| 2026-05-08 07:34 | -21.76350 | 16.80362 | 32145 ft | 485 kts | 340° |
| 2026-05-08 07:35 | -21.69729 | 16.78838 | 32138 ft | 486 kts | 340° |
| 2026-05-08 07:35 | -21.63158 | 16.77327 | 32133 ft | 486 kts | 340° |
| 2026-05-08 07:36 | -21.56534 | 16.75806 | 32124 ft | 486 kts | 340° |
| 2026-05-08 07:36 | -21.49900 | 16.74285 | 32135 ft | 486 kts | 340° |
| 2026-05-08 07:37 | -21.43281 | 16.72767 | 32146 ft | 487 kts | 340° |
| 2026-05-08 07:37 | -21.36693 | 16.71259 | 32145 ft | 487 kts | 340° |
| 2026-05-08 07:38 | -21.30046 | 16.69738 | 32139 ft | 488 kts | 340° |
| 2026-05-08 07:38 | -21.23426 | 16.68226 | 32143 ft | 488 kts | 340° |
| 2026-05-08 07:39 | -21.16761 | 16.66705 | 32138 ft | 488 kts | 340° |
| 2026-05-08 07:39 | -21.10105 | 16.65188 | 32137 ft | 488 kts | 340° |
| 2026-05-08 07:40 | -21.03486 | 16.63680 | 32133 ft | 488 kts | 340° |
| 2026-05-08 07:40 | -20.96841 | 16.62163 | 32088 ft | 488 kts | 341° |
| 2026-05-08 07:41 | -20.90185 | 16.60639 | 32103 ft | 488 kts | 341° |
| 2026-05-08 07:41 | -20.83560 | 16.59126 | 32107 ft | 488 kts | 341° |
| 2026-05-08 07:42 | -20.76901 | 16.57608 | 32107 ft | 489 kts | 341° |
| 2026-05-08 07:42 | -20.70236 | 16.56092 | 32104 ft | 489 kts | 341° |
| 2026-05-08 07:43 | -20.63609 | 16.54585 | 32084 ft | 489 kts | 341° |
| 2026-05-08 07:43 | -20.56935 | 16.53069 | 32099 ft | 489 kts | 341° |
| 2026-05-08 07:44 | -20.50297 | 16.51563 | 32096 ft | 490 kts | 341° |
| 2026-05-08 07:44 | -20.43615 | 16.50048 | 32102 ft | 489 kts | 341° |
| 2026-05-08 07:45 | -20.36943 | 16.48536 | 32094 ft | 490 kts | 341° |
| 2026-05-08 07:45 | -20.30304 | 16.47033 | 32089 ft | 489 kts | 341° |
| 2026-05-08 07:46 | -20.23677 | 16.45535 | 32087 ft | 489 kts | 341° |
| 2026-05-08 07:46 | -20.17047 | 16.44036 | 32096 ft | 489 kts | 341° |
| 2026-05-08 07:47 | -20.10373 | 16.42530 | 32099 ft | 489 kts | 341° |
| 2026-05-08 07:47 | -20.04823 | 16.41278 | 32096 ft | 490 kts | 341° |
| 2026-05-08 07:48 | -19.97073 | 16.39531 | 32086 ft | 489 kts | 341° |
| 2026-05-08 07:48 | -19.91526 | 16.38282 | 32096 ft | 489 kts | 341° |
| 2026-05-08 07:49 | -19.84853 | 16.36780 | 32094 ft | 489 kts | 341° |
| 2026-05-08 07:49 | -19.78176 | 16.35279 | 32100 ft | 489 kts | 341° |
| 2026-05-08 07:50 | -19.71503 | 16.33780 | 32099 ft | 490 kts | 341° |
| 2026-05-08 07:50 | -19.64831 | 16.32283 | 32096 ft | 490 kts | 341° |
| 2026-05-08 07:51 | -19.58186 | 16.30793 | 32123 ft | 490 kts | 341° |
| 2026-05-08 07:51 | -19.51490 | 16.29293 | 32108 ft | 490 kts | 342° |
| 2026-05-08 07:52 | -19.44847 | 16.27805 | 32115 ft | 491 kts | 341° |
| 2026-05-08 07:52 | -19.38159 | 16.26310 | 32118 ft | 491 kts | 342° |
| 2026-05-08 07:53 | -19.31463 | 16.24813 | 32115 ft | 491 kts | 342° |
| 2026-05-08 07:53 | -19.24800 | 16.23326 | 32119 ft | 491 kts | 342° |
| 2026-05-08 07:54 | -19.18107 | 16.21833 | 32112 ft | 491 kts | 342° |
| 2026-05-08 07:54 | -19.11411 | 16.20340 | 32121 ft | 491 kts | 342° |
| 2026-05-08 07:55 | -19.04759 | 16.18858 | 32094 ft | 490 kts | 342° |
| 2026-05-08 07:55 | -18.98059 | 16.17368 | 32111 ft | 490 kts | 342° |
| 2026-05-08 07:56 | -18.91411 | 16.15890 | 32116 ft | 490 kts | 342° |
| 2026-05-08 07:56 | -18.84731 | 16.14406 | 32116 ft | 490 kts | 342° |
| 2026-05-08 07:57 | -18.78072 | 16.12928 | 32110 ft | 490 kts | 342° |
| 2026-05-08 07:57 | -18.71385 | 16.11445 | 32097 ft | 490 kts | 342° |
| 2026-05-08 07:58 | -18.64699 | 16.09965 | 32104 ft | 490 kts | 342° |
| 2026-05-08 07:58 | -18.58048 | 16.08494 | 32108 ft | 490 kts | 342° |
| 2026-05-08 07:59 | -18.51362 | 16.07011 | 32104 ft | 490 kts | 342° |
| 2026-05-08 07:59 | -18.44666 | 16.05521 | 32103 ft | 490 kts | 342° |
| 2026-05-08 08:00 | -18.38031 | 16.04049 | 32098 ft | 490 kts | 342° |
| 2026-05-08 08:00 | -18.31336 | 16.02567 | 32106 ft | 490 kts | 342° |
| 2026-05-08 08:01 | -18.24651 | 16.01088 | 32104 ft | 490 kts | 342° |
| 2026-05-08 08:01 | -18.18004 | 15.99620 | 32098 ft | 490 kts | 342° |
| 2026-05-08 08:02 | -18.11303 | 15.98140 | 32088 ft | 490 kts | 342° |
| 2026-05-08 08:02 | -18.04645 | 15.96671 | 32082 ft | 490 kts | 342° |
| 2026-05-08 08:03 | -17.97952 | 15.95195 | 32080 ft | 491 kts | 342° |
| 2026-05-08 08:03 | -17.91259 | 15.93721 | 32095 ft | 491 kts | 342° |
| 2026-05-08 08:04 | -17.84613 | 15.92258 | 32100 ft | 491 kts | 342° |
| 2026-05-08 08:04 | -17.77912 | 15.90784 | 32090 ft | 491 kts | 343° |
| 2026-05-08 08:05 | -17.71223 | 15.89315 | 32085 ft | 490 kts | 343° |
| 2026-05-08 08:05 | -17.64588 | 15.87858 | 32091 ft | 489 kts | 343° |
| 2026-05-08 08:06 | -17.57907 | 15.86393 | 32092 ft | 489 kts | 343° |
| 2026-05-08 08:06 | -17.51243 | 15.84932 | 32097 ft | 489 kts | 343° |
| 2026-05-08 08:07 | -17.44617 | 15.83482 | 32073 ft | 489 kts | 343° |
| 2026-05-08 08:07 | -17.37962 | 15.81975 | 32091 ft | 487 kts | 340° |
| 2026-05-08 08:08 | -17.31473 | 15.79991 | 32103 ft | 484 kts | 338° |
| 2026-05-08 08:08 | -17.25065 | 15.77908 | 32102 ft | 485 kts | 338° |
| 2026-05-08 08:09 | -17.18600 | 15.75837 | 32123 ft | 485 kts | 338° |
| 2026-05-08 08:09 | -17.12156 | 15.73810 | 32136 ft | 485 kts | 338° |
| 2026-05-08 08:10 | -17.05680 | 15.71787 | 32130 ft | 485 kts | 339° |
| 2026-05-08 08:10 | -16.99201 | 15.69766 | 32131 ft | 486 kts | 339° |
| 2026-05-08 08:11 | -16.92706 | 15.67740 | 32125 ft | 486 kts | 339° |
| 2026-05-08 08:11 | -16.86259 | 15.65728 | 32080 ft | 486 kts | 339° |
| 2026-05-08 08:12 | -16.79774 | 15.63706 | 32069 ft | 486 kts | 339° |
| 2026-05-08 08:12 | -16.73298 | 15.61689 | 32069 ft | 485 kts | 339° |
| 2026-05-08 08:13 | -16.66878 | 15.59690 | 32070 ft | 485 kts | 339° |
| 2026-05-08 08:13 | -16.60401 | 15.57675 | 32070 ft | 485 kts | 339° |
| 2026-05-08 08:14 | -16.53922 | 15.55661 | 32070 ft | 484 kts | 339° |
| 2026-05-08 08:14 | -16.47492 | 15.53663 | 32071 ft | 484 kts | 339° |
| 2026-05-08 08:15 | -16.41019 | 15.51653 | 32065 ft | 484 kts | 339° |
| 2026-05-08 08:15 | -16.34596 | 15.49661 | 32067 ft | 484 kts | 339° |
| 2026-05-08 08:16 | -16.28130 | 15.47657 | 32067 ft | 484 kts | 339° |
| 2026-05-08 08:16 | -16.21665 | 15.45654 | 32065 ft | 485 kts | 339° |
| 2026-05-08 08:17 | -16.15183 | 15.43647 | 32065 ft | 485 kts | 339° |
| 2026-05-08 08:17 | -16.08753 | 15.41658 | 32061 ft | 485 kts | 339° |
| 2026-05-08 08:18 | -16.02269 | 15.39653 | 32063 ft | 485 kts | 339° |
| 2026-05-08 08:18 | -15.95782 | 15.37648 | 32065 ft | 485 kts | 339° |
| 2026-05-08 08:19 | -15.89344 | 15.35661 | 32070 ft | 485 kts | 339° |
| 2026-05-08 08:19 | -15.82857 | 15.33659 | 32066 ft | 486 kts | 339° |
| 2026-05-08 08:20 | -15.76366 | 15.31658 | 32057 ft | 485 kts | 339° |